Time;durP1;ratioP1;P1;durP2;ratioP2;P2;SDS_P1;SDS_P2;PMS_P1;PMS_P2;Temp;Humidity;BMP_temperature;BMP_pressure;BME280_temperature;BME280_humidity;BME280_pressure;Samples;Min_cycle;Max_cycle;Signal;HPM_P1;HPM_P2
2023/06/19 00:03:05;;;;;;;;;;;25.10;51.80;;;;;;10254521;28;89858;-65
2023/06/19 00:08:07;;;;;;;;;;;25.10;51.90;;;;;;10253172;28;89344;-65
2023/06/19 00:13:09;;;;;;;;;;;25.00;51.80;;;;;;10253405;28;90150;-64
2023/06/19 00:18:11;;;;;;;;;;;25.10;51.90;;;;;;10250058;28;89078;-65
2023/06/19 00:23:14;;;;;;;;;;;25.10;51.90;;;;;;10251570;28;90145;-65
2023/06/19 00:28:19;;;;;;;;;;;25.00;51.90;;;;;;10249977;28;88918;-65
2023/06/19 00:33:21;;;;;;;;;;;25.00;51.80;;;;;;10251941;28;88863;-65
2023/06/19 00:38:23;;;;;;;;;;;25.00;51.80;;;;;;10252827;28;90092;-65
2023/06/19 00:43:25;;;;;;;;;;;25.00;51.80;;;;;;10252096;28;90064;-65
2023/06/19 00:48:28;;;;;;;;;;;25.10;51.90;;;;;;10248681;28;89182;-65
2023/06/19 00:53:30;;;;;;;;;;;25.10;51.80;;;;;;10252155;28;88207;-65
2023/06/19 00:58:32;;;;;;;;;;;25.10;51.80;;;;;;10250265;28;89211;-65
2023/06/19 01:03:35;;;;;;;;;;;25.10;51.80;;;;;;10251769;28;89157;-66
2023/06/19 01:08:38;;;;;;;;;;;25.10;52.70;;;;;;10250625;28;89773;-65
2023/06/19 01:13:50;;;;;;;;;;;25.10;51.70;;;;;;10251063;28;88991;-65
2023/06/19 01:18:52;;;;;;;;;;;25.10;51.70;;;;;;10251874;28;88738;-66
2023/06/19 01:23:55;;;;;;;;;;;25.10;51.60;;;;;;10250224;28;88870;-65
2023/06/19 01:28:58;;;;;;;;;;;25.10;51.60;;;;;;10250323;28;88961;-65
2023/06/19 01:34:01;;;;;;;;;;;25.10;51.50;;;;;;10254617;28;89061;-65
2023/06/19 01:39:03;;;;;;;;;;;25.10;51.60;;;;;;10258155;28;89024;-65
2023/06/19 01:44:05;;;;;;;;;;;25.10;51.50;;;;;;10259456;28;88372;-66
2023/06/19 01:49:08;;;;;;;;;;;25.00;51.50;;;;;;10257015;28;89243;-65
2023/06/19 01:54:10;;;;;;;;;;;25.10;51.50;;;;;;10257809;28;90089;-65
2023/06/19 01:59:12;;;;;;;;;;;25.10;51.50;;;;;;10255974;28;89865;-65
2023/06/19 02:04:14;;;;;;;;;;;25.10;51.50;;;;;;10257099;28;88838;-66
2023/06/19 02:09:16;;;;;;;;;;;25.10;51.60;;;;;;10257274;28;89244;-63
2023/06/19 02:14:18;;;;;;;;;;;25.00;51.50;;;;;;10256395;28;89417;-65
2023/06/19 02:19:20;;;;;;;;;;;25.00;51.50;;;;;;10256883;28;89049;-65
2023/06/19 02:24:22;;;;;;;;;;;25.00;51.60;;;;;;10256837;28;90106;-66
2023/06/19 02:29:24;;;;;;;;;;;25.00;51.70;;;;;;10255673;28;89151;-65
2023/06/19 02:34:26;;;;;;;;;;;25.00;51.60;;;;;;10257850;28;88235;-66
2023/06/19 02:39:28;;;;;;;;;;;25.00;51.70;;;;;;10256796;28;88975;-65
2023/06/19 02:44:30;;;;;;;;;;;25.00;51.80;;;;;;10254691;28;89128;-66
2023/06/19 02:49:32;;;;;;;;;;;25.00;51.80;;;;;;10255255;28;90641;-65
2023/06/19 02:54:34;;;;;;;;;;;25.00;52.00;;;;;;10255290;28;90107;-65
2023/06/19 02:59:36;;;;;;;;;;;25.00;52.00;;;;;;10255252;28;89163;-66
2023/06/19 03:04:37;;;;;;;;;;;25.00;52.00;;;;;;10256162;28;89256;-66
2023/06/19 03:09:39;;;;;;;;;;;25.00;52.00;;;;;;10255850;28;89814;-65
2023/06/19 03:14:41;;;;;;;;;;;24.90;52.00;;;;;;10255614;28;90186;-65
2023/06/19 03:19:43;;;;;;;;;;;24.90;52.10;;;;;;10255080;28;90103;-65
2023/06/19 03:24:45;;;;;;;;;;;25.00;52.10;;;;;;10253896;28;88445;-65
2023/06/19 03:29:47;;;;;;;;;;;24.90;52.20;;;;;;10252762;28;89959;-65
2023/06/19 03:34:48;;;;;;;;;;;25.00;52.10;;;;;;10254215;28;89753;-65
2023/06/19 03:39:51;;;;;;;;;;;25.00;52.20;;;;;;10253478;28;89852;-65
2023/06/19 03:44:52;;;;;;;;;;;25.00;52.20;;;;;;10253784;28;89253;-65
2023/06/19 03:49:54;;;;;;;;;;;25.00;52.30;;;;;;10252109;28;90836;-65
2023/06/19 03:54:56;;;;;;;;;;;25.00;52.40;;;;;;10253650;28;90017;-66
2023/06/19 03:59:58;;;;;;;;;;;25.00;52.40;;;;;;10253581;28;90164;-65
2023/06/19 04:05:00;;;;;;;;;;;25.00;52.40;;;;;;10253191;28;90703;-65
2023/06/19 04:10:02;;;;;;;;;;;25.00;52.40;;;;;;10252540;28;89168;-65
2023/06/19 04:15:04;;;;;;;;;;;25.00;52.40;;;;;;10252424;28;89602;-66
2023/06/19 04:20:10;;;;;;;;;;;25.00;52.40;;;;;;10252140;28;89076;-65
2023/06/19 04:25:21;;;;;;;;;;;25.00;52.50;;;;;;10252542;28;89050;-65
2023/06/19 04:30:23;;;;;;;;;;;25.00;52.60;;;;;;10251537;28;89909;-65
2023/06/19 04:35:25;;;;;;;;;;;25.00;52.70;;;;;;10252142;28;89114;-65
2023/06/19 04:40:27;;;;;;;;;;;25.00;52.80;;;;;;10252106;28;89373;-66
2023/06/19 04:50:52;;;;;;;;;;;25.00;52.80;;;;;;10601860;22;91161;-65
2023/06/19 04:55:55;;;;;;;;;;;25.00;52.80;;;;;;10327496;28;89415;-63
2023/06/19 05:00:56;;;;;;;;;;;25.00;52.80;;;;;;10310426;28;90085;-64
2023/06/19 05:05:58;;;;;;;;;;;25.00;53.10;;;;;;10333137;28;89727;-67
2023/06/19 05:11:00;;;;;;;;;;;25.00;53.10;;;;;;10332744;28;88966;-67
2023/06/19 05:16:02;;;;;;;;;;;25.00;53.10;;;;;;10332195;28;89116;-66
2023/06/19 05:21:03;;;;;;;;;;;25.00;53.20;;;;;;10326569;28;90233;-66
2023/06/19 05:26:05;;;;;;;;;;;25.00;53.30;;;;;;10327110;28;90121;-66
2023/06/19 05:31:07;;;;;;;;;;;25.00;53.50;;;;;;10313460;28;90147;-67
2023/06/19 05:36:08;;;;;;;;;;;25.00;53.90;;;;;;10331791;28;89547;-65
2023/06/19 05:41:11;;;;;;;;;;;25.00;55.60;;;;;;10333139;28;89410;-63
2023/06/19 05:46:13;;;;;;;;;;;25.00;55.90;;;;;;10331147;28;89570;-64
2023/06/19 05:51:15;;;;;;;;;;;25.00;55.90;;;;;;10329355;28;88261;-63
2023/06/19 05:56:16;;;;;;;;;;;25.00;56.30;;;;;;10332867;28;88985;-63
2023/06/19 06:01:18;;;;;;;;;;;24.90;57.90;;;;;;10312895;28;89229;-65
2023/06/19 06:06:20;;;;;;;;;;;24.60;58.70;;;;;;10330418;28;89118;-65
2023/06/19 06:11:22;;;;;;;;;;;24.50;59.00;;;;;;10330580;28;90451;-66
2023/06/19 06:16:24;;;;;;;;;;;24.50;59.20;;;;;;10311219;28;89103;-66
2023/06/19 06:21:26;;;;;;;;;;;24.60;58.80;;;;;;10330911;28;90337;-66
2023/06/19 06:26:28;;;;;;;;;;;24.60;58.60;;;;;;10335608;28;88522;-65
2023/06/19 06:31:29;;;;;;;;;;;24.70;58.30;;;;;;10319800;28;88902;-65
2023/06/19 06:36:31;;;;;;;;;;;24.80;58.10;;;;;;10319494;28;89231;-65
2023/06/19 06:41:38;;;;;;;;;;;24.80;57.90;;;;;;10338470;28;88727;-65
2023/06/19 06:46:40;;;;;;;;;;;24.80;57.60;;;;;;10338321;28;88711;-65
2023/06/19 06:51:41;;;;;;;;;;;24.80;57.30;;;;;;10336693;28;90415;-65
2023/06/19 06:56:47;;;;;;;;;;;24.90;57.40;;;;;;10337211;28;90178;-66
2023/06/19 07:01:49;;;;;;;;;;;24.90;57.10;;;;;;10336417;28;89123;-66
2023/06/19 07:06:51;;;;;;;;;;;24.90;56.90;;;;;;10336390;28;88822;-65
2023/06/19 07:11:52;;;;;;;;;;;24.90;56.80;;;;;;10336494;28;89784;-66
2023/06/19 07:16:54;;;;;;;;;;;24.90;56.70;;;;;;10336897;28;92724;-66
2023/06/19 07:21:56;;;;;;;;;;;24.90;56.50;;;;;;10336841;28;90181;-65
2023/06/19 07:26:58;;;;;;;;;;;25.00;56.50;;;;;;10335414;28;90253;-66
2023/06/19 07:32:02;;;;;;;;;;;25.00;56.50;;;;;;10336231;28;88991;-65
2023/06/19 07:37:05;;;;;;;;;;;25.00;56.40;;;;;;10335957;28;88297;-65
2023/06/19 07:42:07;;;;;;;;;;;25.00;56.20;;;;;;10334589;28;89116;-65
2023/06/19 07:47:08;;;;;;;;;;;25.00;56.00;;;;;;10316372;28;89024;-66
2023/06/19 07:52:10;;;;;;;;;;;24.90;55.90;;;;;;10333613;28;89817;-66
2023/06/19 07:57:12;;;;;;;;;;;25.00;55.80;;;;;;10334291;28;90027;-65
2023/06/19 08:02:14;;;;;;;;;;;24.90;55.70;;;;;;10334628;28;89161;-66
2023/06/19 08:07:16;;;;;;;;;;;24.90;55.70;;;;;;10334418;28;89197;-66
2023/06/19 08:12:18;;;;;;;;;;;24.90;55.60;;;;;;10335136;28;90174;-65
2023/06/19 08:17:20;;;;;;;;;;;24.90;55.50;;;;;;10334164;28;90463;-66
2023/06/19 08:22:22;;;;;;;;;;;24.90;55.60;;;;;;10333867;28;89514;-65
2023/06/19 08:27:24;;;;;;;;;;;24.90;55.50;;;;;;10334710;28;88551;-66
2023/06/19 08:32:26;;;;;;;;;;;24.90;55.50;;;;;;10333557;28;90479;-65
2023/06/19 08:37:28;;;;;;;;;;;24.90;55.50;;;;;;10334092;28;89086;-65
2023/06/19 08:42:30;;;;;;;;;;;25.00;55.50;;;;;;10332067;28;90350;-65
2023/06/19 08:47:33;;;;;;;;;;;24.90;55.40;;;;;;10332836;28;89282;-65
2023/06/19 08:52:35;;;;;;;;;;;24.90;55.40;;;;;;10290354;28;89309;-66
2023/06/19 08:57:40;;;;;;;;;;;24.90;55.30;;;;;;10290809;28;90442;-66
2023/06/19 09:02:44;;;;;;;;;;;24.90;55.30;;;;;;10291026;28;89257;-65
2023/06/19 09:08:00;;;;;;;;;;;24.90;55.20;;;;;;10291552;28;89030;-65
2023/06/19 09:13:03;;;;;;;;;;;24.90;55.20;;;;;;10292834;28;90000;-65
2023/06/19 09:18:08;;;;;;;;;;;24.90;55.10;;;;;;10292204;28;108876;-65
2023/06/19 09:23:11;;;;;;;;;;;25.00;55.20;;;;;;10292234;28;89950;-65
2023/06/19 09:28:19;;;;;;;;;;;25.00;55.10;;;;;;10291267;28;90271;-65
2023/06/19 09:33:21;;;;;;;;;;;25.00;55.00;;;;;;10290398;28;89947;-61
2023/06/19 09:38:25;;;;;;;;;;;25.00;55.00;;;;;;10291889;28;89972;-61
2023/06/19 09:43:37;;;;;;;;;;;25.00;54.80;;;;;;10291268;28;89104;-61
2023/06/19 09:48:41;;;;;;;;;;;25.00;54.70;;;;;;10299097;28;89142;-61
2023/06/19 09:53:47;;;;;;;;;;;25.10;54.70;;;;;;10334361;28;88396;-61
2023/06/19 09:58:50;;;;;;;;;;;25.10;54.60;;;;;;10338446;28;89546;-61
2023/06/19 10:04:01;;;;;;;;;;;25.20;54.70;;;;;;10321131;28;89546;-61
2023/06/19 10:09:06;;;;;;;;;;;25.20;54.50;;;;;;10338568;28;89689;-61
2023/06/19 10:14:08;;;;;;;;;;;25.10;54.50;;;;;;10320987;28;90492;-61
2023/06/19 10:19:15;;;;;;;;;;;25.10;54.50;;;;;;10319294;28;88814;-61
2023/06/19 10:24:19;;;;;;;;;;;25.10;54.50;;;;;;10319697;28;89860;-61
2023/06/19 10:29:21;;;;;;;;;;;25.10;54.50;;;;;;10337210;28;88080;-61
2023/06/19 10:34:32;;;;;;;;;;;25.20;54.60;;;;;;10337501;28;89453;-61
2023/06/19 10:39:34;;;;;;;;;;;25.20;54.60;;;;;;10337866;28;89891;-61
2023/06/19 10:44:39;;;;;;;;;;;25.20;54.50;;;;;;10337162;28;89338;-61
2023/06/19 10:49:41;;;;;;;;;;;25.20;54.30;;;;;;10336481;28;89267;-61
2023/06/19 10:54:43;;;;;;;;;;;25.30;54.30;;;;;;10336807;28;89227;-61
2023/06/19 10:59:44;;;;;;;;;;;25.30;54.20;;;;;;10338914;28;88250;-65
2023/06/19 11:04:46;;;;;;;;;;;25.30;54.10;;;;;;10335785;28;88081;-65
2023/06/19 11:09:50;;;;;;;;;;;25.40;54.10;;;;;;10336242;28;89170;-65
2023/06/19 11:14:52;;;;;;;;;;;25.40;54.00;;;;;;10336707;28;91033;-65
2023/06/19 11:19:56;;;;;;;;;;;25.40;54.10;;;;;;10336108;28;89193;-65
2023/06/19 11:25:01;;;;;;;;;;;25.40;54.10;;;;;;10336575;28;90437;-66
2023/06/19 11:30:06;;;;;;;;;;;25.40;54.00;;;;;;10335390;28;88681;-65
2023/06/19 11:35:09;;;;;;;;;;;25.40;53.90;;;;;;10336401;28;90298;-65
2023/06/19 11:40:20;;;;;;;;;;;25.50;53.90;;;;;;10300841;28;88173;-65
2023/06/19 11:45:23;;;;;;;;;;;25.40;53.80;;;;;;10335557;28;89343;-65
2023/06/19 11:50:28;;;;;;;;;;;25.40;53.80;;;;;;10316622;28;91856;-65
2023/06/19 11:55:30;;;;;;;;;;;25.40;53.80;;;;;;10317484;28;89095;-65
2023/06/19 12:00:32;;;;;;;;;;;25.50;53.80;;;;;;10335292;28;89709;-65
2023/06/19 12:05:33;;;;;;;;;;;25.50;53.80;;;;;;10335201;28;90877;-66
2023/06/19 12:10:36;;;;;;;;;;;25.50;53.90;;;;;;10315918;28;89337;-65
2023/06/19 12:15:38;;;;;;;;;;;25.50;53.80;;;;;;10333184;28;90108;-65
2023/06/19 12:20:40;;;;;;;;;;;25.50;53.70;;;;;;10334321;28;90612;-65
2023/06/19 12:25:41;;;;;;;;;;;25.50;53.70;;;;;;10333581;28;88164;-65
2023/06/19 12:30:44;;;;;;;;;;;25.50;53.70;;;;;;10334045;28;89216;-65
2023/06/19 12:35:46;;;;;;;;;;;25.60;53.60;;;;;;10334837;28;90084;-66
2023/06/19 12:40:47;;;;;;;;;;;25.60;53.80;;;;;;10335406;28;89441;-65
2023/06/19 12:45:49;;;;;;;;;;;25.60;53.70;;;;;;10335005;28;90163;-65
2023/06/19 12:50:51;;;;;;;;;;;25.50;53.60;;;;;;10333264;28;89557;-66
2023/06/19 12:55:53;;;;;;;;;;;25.60;53.60;;;;;;10331866;28;89901;-66
2023/06/19 13:01:03;;;;;;;;;;;25.50;53.60;;;;;;10332947;28;89365;-66
2023/06/19 13:06:05;;;;;;;;;;;25.60;53.70;;;;;;10315515;28;88126;-65
2023/06/19 13:11:07;;;;;;;;;;;25.50;54.50;;;;;;10333697;28;89461;-65
2023/06/19 13:16:09;;;;;;;;;;;25.60;53.60;;;;;;10332076;28;89123;-66
2023/06/19 13:21:15;;;;;;;;;;;25.60;53.50;;;;;;10333402;28;90448;-66
2023/06/19 13:26:17;;;;;;;;;;;25.50;53.60;;;;;;10314889;28;90263;-65
2023/06/19 13:31:18;;;;;;;;;;;25.50;53.60;;;;;;10339013;28;89631;-65
2023/06/19 13:36:20;;;;;;;;;;;25.50;53.60;;;;;;10339083;28;90083;-65
2023/06/19 13:41:23;;;;;;;;;;;25.60;53.60;;;;;;10339213;28;88986;-66
2023/06/19 13:46:25;;;;;;;;;;;25.60;53.60;;;;;;10320225;28;91089;-65
2023/06/19 13:51:27;;;;;;;;;;;25.50;53.50;;;;;;10338533;28;89907;-65
2023/06/19 13:56:29;;;;;;;;;;;25.50;53.40;;;;;;10339171;28;90185;-65
2023/06/19 14:01:31;;;;;;;;;;;25.50;53.50;;;;;;10320872;28;89917;-65
2023/06/19 14:06:34;;;;;;;;;;;25.50;53.50;;;;;;10339085;28;88347;-65
2023/06/19 14:11:35;;;;;;;;;;;25.50;53.60;;;;;;10338797;28;90210;-65
2023/06/19 14:16:37;;;;;;;;;;;25.40;53.60;;;;;;10337823;28;89304;-65
2023/06/19 14:21:39;;;;;;;;;;;25.50;53.70;;;;;;10338432;28;88089;-65
2023/06/19 14:26:41;;;;;;;;;;;25.50;53.60;;;;;;10319888;28;90109;-66
2023/06/19 14:31:42;;;;;;;;;;;25.40;53.70;;;;;;10337739;28;90087;-65
2023/06/19 14:36:44;;;;;;;;;;;25.40;53.70;;;;;;10336462;28;90043;-65
2023/06/19 14:41:46;;;;;;;;;;;25.40;53.70;;;;;;10337514;28;92318;-65
2023/06/19 14:46:48;;;;;;;;;;;25.40;53.70;;;;;;10337215;28;90051;-66
2023/06/19 14:51:50;;;;;;;;;;;25.40;53.80;;;;;;10318259;28;88880;-65
2023/06/19 14:56:51;;;;;;;;;;;25.40;53.80;;;;;;10318715;28;89201;-66
2023/06/19 15:01:53;;;;;;;;;;;25.40;53.80;;;;;;10335810;28;89179;-65
2023/06/19 15:06:55;;;;;;;;;;;25.40;53.80;;;;;;10337479;28;90238;-66
2023/06/19 15:11:57;;;;;;;;;;;25.40;53.80;;;;;;10337896;28;89479;-65
2023/06/19 15:16:59;;;;;;;;;;;25.40;53.70;;;;;;10334793;28;88127;-65
2023/06/19 15:22:01;;;;;;;;;;;25.50;53.70;;;;;;10336506;28;89464;-65
2023/06/19 15:27:02;;;;;;;;;;;25.50;53.70;;;;;;10317912;28;89877;-65
2023/06/19 15:32:04;;;;;;;;;;;25.50;53.60;;;;;;10336417;28;89898;-65
2023/06/19 15:37:06;;;;;;;;;;;25.50;53.60;;;;;;10336096;28;90472;-65
2023/06/19 15:42:08;;;;;;;;;;;25.50;53.60;;;;;;10335610;28;90421;-65
2023/06/19 15:47:10;;;;;;;;;;;25.50;53.70;;;;;;10336412;28;89090;-66
2023/06/19 15:52:11;;;;;;;;;;;25.50;53.60;;;;;;10334649;28;89030;-65
2023/06/19 15:57:13;;;;;;;;;;;25.50;53.50;;;;;;10334863;28;89078;-65
2023/06/19 16:02:15;;;;;;;;;;;25.50;53.40;;;;;;10336624;28;89660;-66
2023/06/19 16:07:17;;;;;;;;;;;25.50;53.40;;;;;;10335379;28;90060;-65
2023/06/19 16:12:18;;;;;;;;;;;25.50;53.40;;;;;;10334319;28;89986;-65
2023/06/19 16:17:20;;;;;;;;;;;25.50;53.50;;;;;;10333492;28;90822;-65
2023/06/19 16:22:22;;;;;;;;;;;25.50;53.50;;;;;;10334324;28;89166;-66
2023/06/19 16:27:24;;;;;;;;;;;25.50;53.40;;;;;;10333217;28;89195;-65
2023/06/19 16:32:25;;;;;;;;;;;25.50;53.40;;;;;;10315967;28;89361;-66
2023/06/19 16:37:27;;;;;;;;;;;25.50;53.50;;;;;;10316117;28;90179;-65
2023/06/19 16:42:29;;;;;;;;;;;25.50;53.50;;;;;;10334343;28;91499;-65
2023/06/19 16:47:31;;;;;;;;;;;25.50;53.60;;;;;;10332884;28;90108;-65
2023/06/19 16:52:33;;;;;;;;;;;25.50;53.60;;;;;;10333467;28;87798;-66
2023/06/19 16:57:35;;;;;;;;;;;25.50;53.70;;;;;;10333176;28;90049;-65
2023/06/19 17:02:36;;;;;;;;;;;25.50;53.70;;;;;;10333106;28;88275;-66
2023/06/19 17:07:38;;;;;;;;;;;25.60;54.40;;;;;;10332293;28;89849;-66
2023/06/19 17:12:40;;;;;;;;;;;25.60;54.90;;;;;;10331105;28;90380;-66
2023/06/19 17:17:42;;;;;;;;;;;25.70;55.40;;;;;;10332450;28;89690;-65
2023/06/19 17:22:44;;;;;;;;;;;25.80;55.60;;;;;;10314457;28;90024;-66
2023/06/19 17:27:46;;;;;;;;;;;25.80;55.80;;;;;;10330696;28;89200;-66
2023/06/19 17:32:48;;;;;;;;;;;25.90;55.20;;;;;;10331823;28;90154;-67
2023/06/19 17:37:49;;;;;;;;;;;25.90;55.00;;;;;;10331600;28;89423;-66
2023/06/19 17:42:51;;;;;;;;;;;25.90;55.00;;;;;;10314783;28;89623;-67
2023/06/19 17:47:53;;;;;;;;;;;25.90;55.00;;;;;;10329934;28;89075;-67
2023/06/19 17:52:55;;;;;;;;;;;25.90;55.00;;;;;;10331575;28;89684;-65
2023/06/19 17:57:56;;;;;;;;;;;25.90;54.90;;;;;;10330335;28;90950;-66
2023/06/19 18:02:58;;;;;;;;;;;25.90;54.80;;;;;;10330693;28;89096;-66
2023/06/19 18:08:00;;;;;;;;;;;26.00;54.70;;;;;;10331152;28;88321;-64
2023/06/19 18:13:02;;;;;;;;;;;26.00;53.50;;;;;;10329433;28;89623;-65
2023/06/19 18:18:04;;;;;;;;;;;25.90;52.30;;;;;;10338066;28;90071;-65
2023/06/19 18:23:06;;;;;;;;;;;25.90;52.00;;;;;;10337550;28;88993;-66
2023/06/19 18:28:08;;;;;;;;;;;25.90;51.50;;;;;;10338057;28;89167;-65
2023/06/19 18:33:10;;;;;;;;;;;25.90;51.30;;;;;;10337806;28;89374;-65
2023/06/19 18:38:12;;;;;;;;;;;25.90;50.90;;;;;;10337821;28;89176;-65
2023/06/19 18:43:14;;;;;;;;;;;25.80;50.70;;;;;;10337385;28;89011;-65
2023/06/19 18:48:16;;;;;;;;;;;25.80;50.70;;;;;;10317653;28;89754;-65
2023/06/19 18:53:18;;;;;;;;;;;25.80;50.60;;;;;;10337686;28;89636;-65
2023/06/19 18:58:21;;;;;;;;;;;25.70;50.30;;;;;;10318413;28;90001;-65
2023/06/19 19:03:23;;;;;;;;;;;25.70;50.60;;;;;;10337870;28;89925;-64
2023/06/19 19:08:25;;;;;;;;;;;25.70;50.90;;;;;;10339314;28;90017;-66
2023/06/19 19:13:27;;;;;;;;;;;25.60;51.20;;;;;;10337086;28;89111;-65
2023/06/19 19:18:28;;;;;;;;;;;25.70;50.80;;;;;;10337256;28;89170;-67
2023/06/19 19:23:30;;;;;;;;;;;25.60;50.80;;;;;;10338297;28;89411;-66
2023/06/19 19:28:32;;;;;;;;;;;25.60;50.80;;;;;;10335982;28;89278;-66
2023/06/19 19:33:33;;;;;;;;;;;25.60;50.70;;;;;;10335751;28;89309;-66
2023/06/19 19:38:36;;;;;;;;;;;25.50;50.60;;;;;;10335108;28;89632;-66
2023/06/19 19:43:38;;;;;;;;;;;25.50;50.70;;;;;;10335197;28;89563;-66
2023/06/19 19:48:39;;;;;;;;;;;25.50;50.70;;;;;;10333853;28;89050;-66
2023/06/19 19:53:41;;;;;;;;;;;25.40;50.70;;;;;;10334850;28;90056;-66
2023/06/19 19:58:43;;;;;;;;;;;25.50;50.70;;;;;;10316959;28;89639;-66
2023/06/19 20:03:45;;;;;;;;;;;25.40;50.70;;;;;;10316817;28;89081;-66
2023/06/19 20:08:47;;;;;;;;;;;25.40;50.70;;;;;;10333999;28;89071;-65
2023/06/19 20:13:49;;;;;;;;;;;25.40;50.80;;;;;;10316111;28;87995;-66
2023/06/19 20:18:50;;;;;;;;;;;25.40;51.20;;;;;;10334229;28;90260;-66
2023/06/19 20:23:53;;;;;;;;;;;25.40;51.40;;;;;;10333778;28;88382;-66
2023/06/19 20:28:54;;;;;;;;;;;25.40;51.50;;;;;;10315398;28;90769;-66
2023/06/19 20:33:56;;;;;;;;;;;25.50;52.70;;;;;;10333332;28;90383;-67
2023/06/19 20:38:58;;;;;;;;;;;25.50;51.90;;;;;;10332483;28;90025;-66
2023/06/19 20:44:00;;;;;;;;;;;25.50;51.80;;;;;;10334423;28;91204;-65
2023/06/19 20:49:01;;;;;;;;;;;25.40;51.70;;;;;;10332430;28;89132;-65
2023/06/19 20:54:03;;;;;;;;;;;25.40;51.70;;;;;;10332850;28;89473;-66
2023/06/19 20:59:05;;;;;;;;;;;25.40;51.80;;;;;;10332874;28;89086;-65
2023/06/19 21:04:07;;;;;;;;;;;25.40;51.90;;;;;;10315434;28;88417;-66
2023/06/19 21:09:09;;;;;;;;;;;25.40;51.90;;;;;;10332237;28;89351;-66
2023/06/19 21:14:11;;;;;;;;;;;25.40;52.00;;;;;;10313934;28;88317;-65
2023/06/19 21:19:12;;;;;;;;;;;25.30;51.90;;;;;;10331052;28;90766;-66
2023/06/19 21:24:14;;;;;;;;;;;25.30;52.00;;;;;;10331878;28;89282;-65
2023/06/19 21:29:16;;;;;;;;;;;25.40;52.00;;;;;;10314150;28;90211;-66
2023/06/19 21:34:18;;;;;;;;;;;25.40;52.10;;;;;;10313535;28;89190;-66
2023/06/19 21:39:19;;;;;;;;;;;25.40;52.00;;;;;;10332000;28;89109;-65
2023/06/19 21:44:21;;;;;;;;;;;25.30;52.00;;;;;;10332462;28;90126;-65
2023/06/19 21:49:24;;;;;;;;;;;25.40;52.10;;;;;;10333474;28;88709;-65
2023/06/19 21:54:25;;;;;;;;;;;25.40;52.10;;;;;;10339745;28;89187;-65
2023/06/19 21:59:27;;;;;;;;;;;25.30;52.00;;;;;;10338981;28;89295;-66
2023/06/19 22:04:29;;;;;;;;;;;25.30;52.00;;;;;;10321206;28;90163;-65
2023/06/19 22:09:31;;;;;;;;;;;25.30;53.00;;;;;;10320508;28;89925;-65
2023/06/19 22:14:37;;;;;;;;;;;25.30;52.10;;;;;;10339580;28;90089;-65
2023/06/19 22:19:40;;;;;;;;;;;25.30;52.10;;;;;;10320521;28;89086;-66
2023/06/19 22:24:41;;;;;;;;;;;25.30;52.10;;;;;;10338030;28;88392;-66
2023/06/19 22:29:43;;;;;;;;;;;25.30;52.10;;;;;;10337737;28;88432;-66
2023/06/19 22:34:45;;;;;;;;;;;25.30;52.10;;;;;;10319802;28;88615;-65
2023/06/19 22:39:47;;;;;;;;;;;25.30;52.10;;;;;;10338604;28;89984;-66
2023/06/19 22:44:49;;;;;;;;;;;25.30;52.10;;;;;;10320163;28;88885;-65
2023/06/19 22:49:51;;;;;;;;;;;25.30;52.20;;;;;;10336431;28;90391;-65
2023/06/19 22:54:52;;;;;;;;;;;25.20;52.20;;;;;;10319320;28;88369;-65
2023/06/19 22:59:55;;;;;;;;;;;25.20;52.10;;;;;;10336030;28;89649;-66
2023/06/19 23:04:57;;;;;;;;;;;25.20;52.20;;;;;;10335774;28;89111;-66
2023/06/19 23:09:59;;;;;;;;;;;25.20;52.10;;;;;;10337126;28;90135;-66
2023/06/19 23:15:01;;;;;;;;;;;25.20;52.20;;;;;;10302457;28;89042;-65
2023/06/19 23:20:05;;;;;;;;;;;25.20;52.30;;;;;;10336033;28;88438;-65
2023/06/19 23:25:07;;;;;;;;;;;25.20;52.20;;;;;;10335911;28;89137;-66
2023/06/19 23:30:09;;;;;;;;;;;25.20;52.30;;;;;;10335566;28;89172;-66
2023/06/19 23:35:11;;;;;;;;;;;25.10;52.20;;;;;;10337613;28;88541;-65
2023/06/19 23:40:13;;;;;;;;;;;25.20;52.30;;;;;;10335665;28;89262;-65
2023/06/19 23:45:15;;;;;;;;;;;25.10;52.10;;;;;;10335134;28;89202;-65
2023/06/19 23:50:17;;;;;;;;;;;25.10;52.20;;;;;;10333566;28;90673;-66
2023/06/19 23:55:18;;;;;;;;;;;25.20;52.30;;;;;;10318386;28;90126;-65
